sensor_id;sensor_type;location;lat;lon;timestamp;P1;durP1;ratioP1;P2;durP2;ratioP2
38937;SDS011;24727;51.974;20.868;2022-12-29T00:01:34;8.32;;;4.65;;
38937;SDS011;24727;51.974;20.868;2022-12-29T00:04:01;9.75;;;4.95;;
38937;SDS011;24727;51.974;20.868;2022-12-29T00:08:58;8.43;;;4.40;;
38937;SDS011;24727;51.974;20.868;2022-12-29T00:11:25;7.10;;;4.68;;
38937;SDS011;24727;51.974;20.868;2022-12-29T00:13:53;7.72;;;4.10;;
38937;SDS011;24727;51.974;20.868;2022-12-29T00:16:39;7.63;;;4.18;;
38937;SDS011;24727;51.974;20.868;2022-12-29T00:19:07;7.93;;;4.40;;
38937;SDS011;24727;51.974;20.868;2022-12-29T00:21:53;9.18;;;4.50;;
38937;SDS011;24727;51.974;20.868;2022-12-29T00:24:37;7.50;;;3.97;;
38937;SDS011;24727;51.974;20.868;2022-12-29T00:27:22;7.78;;;4.43;;
38937;SDS011;24727;51.974;20.868;2022-12-29T00:30:14;9.82;;;4.43;;
38937;SDS011;24727;51.974;20.868;2022-12-29T00:33:09;6.90;;;3.88;;
38937;SDS011;24727;51.974;20.868;2022-12-29T00:39:16;7.57;;;4.25;;
38937;SDS011;24727;51.974;20.868;2022-12-29T00:42:05;9.32;;;4.25;;
38937;SDS011;24727;51.974;20.868;2022-12-29T00:44:51;8.98;;;3.97;;
38937;SDS011;24727;51.974;20.868;2022-12-29T00:47:17;5.13;;;3.35;;
38937;SDS011;24727;51.974;20.868;2022-12-29T00:49:44;6.88;;;3.42;;
38937;SDS011;24727;51.974;20.868;2022-12-29T00:52:12;7.85;;;3.92;;
38937;SDS011;24727;51.974;20.868;2022-12-29T00:54:39;5.75;;;3.53;;
38937;SDS011;24727;51.974;20.868;2022-12-29T00:57:08;7.50;;;4.20;;
38937;SDS011;24727;51.974;20.868;2022-12-29T00:59:35;11.68;;;3.95;;
38937;SDS011;24727;51.974;20.868;2022-12-29T01:02:02;6.75;;;4.13;;
38937;SDS011;24727;51.974;20.868;2022-12-29T01:04:29;7.68;;;3.28;;
38937;SDS011;24727;51.974;20.868;2022-12-29T01:06:55;10.07;;;3.63;;
38937;SDS011;24727;51.974;20.868;2022-12-29T01:09:22;5.75;;;3.10;;
38937;SDS011;24727;51.974;20.868;2022-12-29T01:12:07;6.88;;;3.58;;
38937;SDS011;24727;51.974;20.868;2022-12-29T01:14:34;8.50;;;3.88;;
38937;SDS011;24727;51.974;20.868;2022-12-29T01:17:01;5.80;;;3.38;;
38937;SDS011;24727;51.974;20.868;2022-12-29T01:19:27;7.75;;;3.67;;
38937;SDS011;24727;51.974;20.868;2022-12-29T01:21:52;7.40;;;3.83;;
38937;SDS011;24727;51.974;20.868;2022-12-29T01:24:19;5.80;;;3.65;;
38937;SDS011;24727;51.974;20.868;2022-12-29T01:26:46;6.15;;;2.92;;
38937;SDS011;24727;51.974;20.868;2022-12-29T01:29:13;7.53;;;3.55;;
38937;SDS011;24727;51.974;20.868;2022-12-29T01:31:39;5.55;;;3.33;;
38937;SDS011;24727;51.974;20.868;2022-12-29T01:34:06;6.57;;;3.63;;
38937;SDS011;24727;51.974;20.868;2022-12-29T01:36:33;6.43;;;3.20;;
38937;SDS011;24727;51.974;20.868;2022-12-29T01:39:00;6.78;;;3.42;;
38937;SDS011;24727;51.974;20.868;2022-12-29T01:41:26;9.27;;;3.42;;
38937;SDS011;24727;51.974;20.868;2022-12-29T01:43:56;6.30;;;3.13;;
38937;SDS011;24727;51.974;20.868;2022-12-29T01:48:59;7.13;;;3.38;;
38937;SDS011;24727;51.974;20.868;2022-12-29T01:51:35;5.63;;;3.00;;
38937;SDS011;24727;51.974;20.868;2022-12-29T01:54:32;8.45;;;3.60;;
38937;SDS011;24727;51.974;20.868;2022-12-29T01:57:03;5.55;;;3.28;;
38937;SDS011;24727;51.974;20.868;2022-12-29T01:59:33;9.88;;;2.90;;
38937;SDS011;24727;51.974;20.868;2022-12-29T02:02:03;6.03;;;2.70;;
38937;SDS011;24727;51.974;20.868;2022-12-29T02:04:31;5.50;;;2.80;;
38937;SDS011;24727;51.974;20.868;2022-12-29T02:07:17;6.50;;;3.03;;
38937;SDS011;24727;51.974;20.868;2022-12-29T02:09:47;4.75;;;2.75;;
38937;SDS011;24727;51.974;20.868;2022-12-29T02:12:16;6.47;;;3.20;;
38937;SDS011;24727;51.974;20.868;2022-12-29T02:14:43;6.97;;;3.70;;
38937;SDS011;24727;51.974;20.868;2022-12-29T02:20:22;7.07;;;2.88;;
38937;SDS011;24727;51.974;20.868;2022-12-29T02:33:49;5.90;;;2.88;;
38937;SDS011;24727;51.974;20.868;2022-12-29T02:45:33;5.78;;;2.80;;
38937;SDS011;24727;51.974;20.868;2022-12-29T02:48:08;5.70;;;3.58;;
38937;SDS011;24727;51.974;20.868;2022-12-29T02:50:49;6.45;;;2.88;;
38937;SDS011;24727;51.974;20.868;2022-12-29T02:53:25;5.35;;;3.03;;
38937;SDS011;24727;51.974;20.868;2022-12-29T02:56:10;4.07;;;2.70;;
38937;SDS011;24727;51.974;20.868;2022-12-29T02:58:36;5.60;;;3.00;;
38937;SDS011;24727;51.974;20.868;2022-12-29T03:04:31;6.40;;;3.50;;
38937;SDS011;24727;51.974;20.868;2022-12-29T03:13:12;5.55;;;3.22;;
38937;SDS011;24727;51.974;20.868;2022-12-29T03:16:18;7.25;;;3.17;;
38937;SDS011;24727;51.974;20.868;2022-12-29T03:24:22;8.68;;;3.70;;
38937;SDS011;24727;51.974;20.868;2022-12-29T03:26:53;6.15;;;3.63;;
38937;SDS011;24727;51.974;20.868;2022-12-29T03:29:22;7.78;;;3.70;;
38937;SDS011;24727;51.974;20.868;2022-12-29T03:31:50;6.03;;;3.28;;
38937;SDS011;24727;51.974;20.868;2022-12-29T03:34:19;6.68;;;3.67;;
38937;SDS011;24727;51.974;20.868;2022-12-29T03:36:52;7.85;;;3.60;;
38937;SDS011;24727;51.974;20.868;2022-12-29T03:39:26;9.85;;;3.72;;
38937;SDS011;24727;51.974;20.868;2022-12-29T03:41:57;7.32;;;3.80;;
38937;SDS011;24727;51.974;20.868;2022-12-29T03:44:35;7.97;;;4.30;;
38937;SDS011;24727;51.974;20.868;2022-12-29T03:47:03;9.32;;;4.25;;
38937;SDS011;24727;51.974;20.868;2022-12-29T03:49:30;11.15;;;4.72;;
38937;SDS011;24727;51.974;20.868;2022-12-29T03:52:03;8.45;;;3.78;;
38937;SDS011;24727;51.974;20.868;2022-12-29T03:54:29;6.75;;;4.10;;
38937;SDS011;24727;51.974;20.868;2022-12-29T03:56:55;8.20;;;4.55;;
38937;SDS011;24727;51.974;20.868;2022-12-29T03:59:22;9.32;;;4.53;;
38937;SDS011;24727;51.974;20.868;2022-12-29T04:01:48;10.80;;;4.55;;
38937;SDS011;24727;51.974;20.868;2022-12-29T04:04:16;17.30;;;5.18;;
38937;SDS011;24727;51.974;20.868;2022-12-29T04:06:42;10.10;;;4.93;;
38937;SDS011;24727;51.974;20.868;2022-12-29T04:09:09;9.55;;;5.07;;
38937;SDS011;24727;51.974;20.868;2022-12-29T04:11:36;11.30;;;5.80;;
38937;SDS011;24727;51.974;20.868;2022-12-29T04:14:03;11.82;;;4.40;;
38937;SDS011;24727;51.974;20.868;2022-12-29T04:16:28;9.57;;;4.80;;
38937;SDS011;24727;51.974;20.868;2022-12-29T04:18:55;10.93;;;4.97;;
38937;SDS011;24727;51.974;20.868;2022-12-29T04:21:21;11.55;;;4.95;;
38937;SDS011;24727;51.974;20.868;2022-12-29T04:23:47;9.80;;;4.63;;
38937;SDS011;24727;51.974;20.868;2022-12-29T04:26:13;9.93;;;5.05;;
38937;SDS011;24727;51.974;20.868;2022-12-29T04:28:39;12.43;;;5.47;;
38937;SDS011;24727;51.974;20.868;2022-12-29T04:31:05;11.18;;;5.05;;
38937;SDS011;24727;51.974;20.868;2022-12-29T04:33:32;9.07;;;4.75;;
38937;SDS011;24727;51.974;20.868;2022-12-29T04:36:00;10.02;;;4.43;;
38937;SDS011;24727;51.974;20.868;2022-12-29T04:38:27;9.43;;;5.07;;
38937;SDS011;24727;51.974;20.868;2022-12-29T04:40:53;10.27;;;4.95;;
38937;SDS011;24727;51.974;20.868;2022-12-29T04:43:19;7.47;;;4.25;;
38937;SDS011;24727;51.974;20.868;2022-12-29T04:45:46;9.57;;;5.00;;
38937;SDS011;24727;51.974;20.868;2022-12-29T04:48:12;11.05;;;5.90;;
38937;SDS011;24727;51.974;20.868;2022-12-29T04:50:42;8.80;;;4.97;;
38937;SDS011;24727;51.974;20.868;2022-12-29T04:53:08;10.55;;;4.82;;
38937;SDS011;24727;51.974;20.868;2022-12-29T04:55:34;12.25;;;5.78;;
38937;SDS011;24727;51.974;20.868;2022-12-29T04:58:00;13.55;;;5.57;;
38937;SDS011;24727;51.974;20.868;2022-12-29T05:00:27;11.25;;;4.80;;
38937;SDS011;24727;51.974;20.868;2022-12-29T05:02:53;11.38;;;5.35;;
38937;SDS011;24727;51.974;20.868;2022-12-29T05:05:21;8.52;;;4.68;;
38937;SDS011;24727;51.974;20.868;2022-12-29T05:07:47;10.70;;;4.97;;
38937;SDS011;24727;51.974;20.868;2022-12-29T05:10:14;8.10;;;4.72;;
38937;SDS011;24727;51.974;20.868;2022-12-29T05:12:40;10.90;;;5.03;;
38937;SDS011;24727;51.974;20.868;2022-12-29T05:15:08;12.27;;;4.85;;
38937;SDS011;24727;51.974;20.868;2022-12-29T05:17:35;11.18;;;4.75;;
38937;SDS011;24727;51.974;20.868;2022-12-29T05:20:02;9.40;;;4.43;;
38937;SDS011;24727;51.974;20.868;2022-12-29T05:22:29;9.48;;;5.00;;
38937;SDS011;24727;51.974;20.868;2022-12-29T05:24:56;9.10;;;4.55;;
38937;SDS011;24727;51.974;20.868;2022-12-29T05:27:22;9.10;;;4.47;;
38937;SDS011;24727;51.974;20.868;2022-12-29T05:29:54;11.75;;;5.05;;
38937;SDS011;24727;51.974;20.868;2022-12-29T05:32:21;7.45;;;4.15;;
38937;SDS011;24727;51.974;20.868;2022-12-29T05:34:47;9.38;;;4.38;;
38937;SDS011;24727;51.974;20.868;2022-12-29T05:37:13;9.90;;;4.80;;
38937;SDS011;24727;51.974;20.868;2022-12-29T05:39:39;8.10;;;4.18;;
38937;SDS011;24727;51.974;20.868;2022-12-29T05:42:05;8.13;;;4.78;;
38937;SDS011;24727;51.974;20.868;2022-12-29T05:44:31;9.32;;;4.32;;
38937;SDS011;24727;51.974;20.868;2022-12-29T05:46:57;7.80;;;4.35;;
38937;SDS011;24727;51.974;20.868;2022-12-29T05:49:23;9.75;;;4.63;;
38937;SDS011;24727;51.974;20.868;2022-12-29T05:51:51;7.65;;;4.25;;
38937;SDS011;24727;51.974;20.868;2022-12-29T05:54:17;8.00;;;4.50;;
38937;SDS011;24727;51.974;20.868;2022-12-29T05:56:43;11.05;;;4.82;;
38937;SDS011;24727;51.974;20.868;2022-12-29T05:59:08;7.53;;;4.10;;
38937;SDS011;24727;51.974;20.868;2022-12-29T06:01:34;8.30;;;4.45;;
38937;SDS011;24727;51.974;20.868;2022-12-29T06:04:01;7.88;;;3.55;;
38937;SDS011;24727;51.974;20.868;2022-12-29T06:06:28;7.57;;;4.90;;
38937;SDS011;24727;51.974;20.868;2022-12-29T06:08:54;10.07;;;4.82;;
38937;SDS011;24727;51.974;20.868;2022-12-29T06:11:22;8.52;;;4.38;;
38937;SDS011;24727;51.974;20.868;2022-12-29T06:13:49;7.18;;;4.15;;
38937;SDS011;24727;51.974;20.868;2022-12-29T06:16:15;7.00;;;3.88;;
38937;SDS011;24727;51.974;20.868;2022-12-29T06:18:42;7.22;;;3.78;;
38937;SDS011;24727;51.974;20.868;2022-12-29T06:21:08;9.13;;;4.05;;
38937;SDS011;24727;51.974;20.868;2022-12-29T06:23:35;10.65;;;4.30;;
38937;SDS011;24727;51.974;20.868;2022-12-29T06:26:02;8.70;;;4.18;;
38937;SDS011;24727;51.974;20.868;2022-12-29T06:28:29;7.68;;;4.00;;
38937;SDS011;24727;51.974;20.868;2022-12-29T06:30:55;8.50;;;4.10;;
38937;SDS011;24727;51.974;20.868;2022-12-29T06:33:22;9.05;;;4.38;;
38937;SDS011;24727;51.974;20.868;2022-12-29T06:35:48;7.03;;;3.72;;
38937;SDS011;24727;51.974;20.868;2022-12-29T06:38:14;9.68;;;4.30;;
38937;SDS011;24727;51.974;20.868;2022-12-29T06:40:42;7.03;;;3.75;;
38937;SDS011;24727;51.974;20.868;2022-12-29T06:43:09;9.80;;;4.47;;
38937;SDS011;24727;51.974;20.868;2022-12-29T06:45:37;9.40;;;4.60;;
38937;SDS011;24727;51.974;20.868;2022-12-29T06:48:05;10.23;;;4.72;;
38937;SDS011;24727;51.974;20.868;2022-12-29T06:50:31;6.82;;;3.63;;
38937;SDS011;24727;51.974;20.868;2022-12-29T06:52:57;8.75;;;4.13;;
38937;SDS011;24727;51.974;20.868;2022-12-29T06:55:23;7.78;;;3.90;;
38937;SDS011;24727;51.974;20.868;2022-12-29T06:57:49;6.72;;;3.58;;
38937;SDS011;24727;51.974;20.868;2022-12-29T07:00:15;7.10;;;3.72;;
38937;SDS011;24727;51.974;20.868;2022-12-29T07:02:42;7.22;;;3.78;;
38937;SDS011;24727;51.974;20.868;2022-12-29T07:05:08;6.93;;;3.65;;
38937;SDS011;24727;51.974;20.868;2022-12-29T07:07:35;7.82;;;4.70;;
38937;SDS011;24727;51.974;20.868;2022-12-29T07:10:01;8.40;;;4.35;;
38937;SDS011;24727;51.974;20.868;2022-12-29T07:12:27;7.68;;;3.83;;
38937;SDS011;24727;51.974;20.868;2022-12-29T07:14:53;8.98;;;4.10;;
38937;SDS011;24727;51.974;20.868;2022-12-29T07:17:19;7.07;;;3.50;;
38937;SDS011;24727;51.974;20.868;2022-12-29T07:19:45;9.10;;;4.00;;
38937;SDS011;24727;51.974;20.868;2022-12-29T07:22:11;8.20;;;3.67;;
38937;SDS011;24727;51.974;20.868;2022-12-29T07:24:37;7.50;;;4.10;;
38937;SDS011;24727;51.974;20.868;2022-12-29T07:27:03;5.95;;;3.58;;
38937;SDS011;24727;51.974;20.868;2022-12-29T07:29:30;8.73;;;3.95;;
38937;SDS011;24727;51.974;20.868;2022-12-29T07:31:57;6.30;;;3.15;;
38937;SDS011;24727;51.974;20.868;2022-12-29T07:34:23;10.63;;;4.50;;
38937;SDS011;24727;51.974;20.868;2022-12-29T07:36:49;7.25;;;3.70;;
38937;SDS011;24727;51.974;20.868;2022-12-29T07:39:15;7.55;;;3.95;;
38937;SDS011;24727;51.974;20.868;2022-12-29T07:41:41;7.43;;;4.00;;
38937;SDS011;24727;51.974;20.868;2022-12-29T07:44:08;8.07;;;3.63;;
38937;SDS011;24727;51.974;20.868;2022-12-29T07:46:34;9.50;;;4.22;;
38937;SDS011;24727;51.974;20.868;2022-12-29T07:49:00;7.47;;;3.95;;
38937;SDS011;24727;51.974;20.868;2022-12-29T07:51:32;7.50;;;4.03;;
38937;SDS011;24727;51.974;20.868;2022-12-29T07:53:58;7.22;;;4.10;;
38937;SDS011;24727;51.974;20.868;2022-12-29T07:56:27;6.88;;;3.78;;
38937;SDS011;24727;51.974;20.868;2022-12-29T07:58:53;11.35;;;4.30;;
38937;SDS011;24727;51.974;20.868;2022-12-29T08:01:19;7.35;;;3.85;;
38937;SDS011;24727;51.974;20.868;2022-12-29T08:03:46;7.15;;;3.60;;
38937;SDS011;24727;51.974;20.868;2022-12-29T08:06:12;8.88;;;4.00;;
38937;SDS011;24727;51.974;20.868;2022-12-29T08:08:38;6.38;;;3.97;;
38937;SDS011;24727;51.974;20.868;2022-12-29T08:11:03;7.95;;;3.78;;
38937;SDS011;24727;51.974;20.868;2022-12-29T08:13:29;6.15;;;3.75;;
38937;SDS011;24727;51.974;20.868;2022-12-29T08:15:57;7.93;;;4.00;;
38937;SDS011;24727;51.974;20.868;2022-12-29T08:18:24;7.75;;;3.53;;
38937;SDS011;24727;51.974;20.868;2022-12-29T08:20:50;9.80;;;3.55;;
38937;SDS011;24727;51.974;20.868;2022-12-29T08:23:16;8.20;;;4.47;;
38937;SDS011;24727;51.974;20.868;2022-12-29T08:25:42;7.47;;;3.10;;
38937;SDS011;24727;51.974;20.868;2022-12-29T08:28:08;9.02;;;3.80;;
38937;SDS011;24727;51.974;20.868;2022-12-29T08:30:35;7.55;;;3.42;;
38937;SDS011;24727;51.974;20.868;2022-12-29T08:33:01;9.70;;;3.58;;
38937;SDS011;24727;51.974;20.868;2022-12-29T08:35:29;6.65;;;3.80;;
38937;SDS011;24727;51.974;20.868;2022-12-29T08:37:55;6.00;;;3.63;;
38937;SDS011;24727;51.974;20.868;2022-12-29T08:40:21;8.15;;;3.70;;
38937;SDS011;24727;51.974;20.868;2022-12-29T08:42:47;6.10;;;3.47;;
38937;SDS011;24727;51.974;20.868;2022-12-29T08:45:13;7.40;;;3.63;;
38937;SDS011;24727;51.974;20.868;2022-12-29T08:47:39;9.90;;;4.10;;
38937;SDS011;24727;51.974;20.868;2022-12-29T08:50:06;7.18;;;4.03;;
38937;SDS011;24727;51.974;20.868;2022-12-29T08:52:32;9.63;;;4.00;;
38937;SDS011;24727;51.974;20.868;2022-12-29T08:54:58;6.40;;;3.47;;
38937;SDS011;24727;51.974;20.868;2022-12-29T08:57:25;8.35;;;4.13;;
38937;SDS011;24727;51.974;20.868;2022-12-29T08:59:51;6.63;;;3.97;;
38937;SDS011;24727;51.974;20.868;2022-12-29T09:02:17;7.93;;;4.60;;
38937;SDS011;24727;51.974;20.868;2022-12-29T09:04:43;8.18;;;4.30;;
38937;SDS011;24727;51.974;20.868;2022-12-29T09:07:10;7.13;;;4.28;;
38937;SDS011;24727;51.974;20.868;2022-12-29T09:09:38;8.98;;;4.90;;
38937;SDS011;24727;51.974;20.868;2022-12-29T09:12:04;7.18;;;3.30;;
38937;SDS011;24727;51.974;20.868;2022-12-29T09:14:30;7.85;;;3.97;;
38937;SDS011;24727;51.974;20.868;2022-12-29T09:16:56;6.00;;;4.00;;
38937;SDS011;24727;51.974;20.868;2022-12-29T09:19:42;19.83;;;4.13;;
38937;SDS011;24727;51.974;20.868;2022-12-29T09:22:08;8.38;;;4.20;;
38937;SDS011;24727;51.974;20.868;2022-12-29T09:24:34;10.23;;;4.20;;
38937;SDS011;24727;51.974;20.868;2022-12-29T09:27:02;7.63;;;4.45;;
38937;SDS011;24727;51.974;20.868;2022-12-29T09:29:28;7.03;;;4.10;;
38937;SDS011;24727;51.974;20.868;2022-12-29T09:31:59;7.18;;;4.18;;
38937;SDS011;24727;51.974;20.868;2022-12-29T09:34:26;10.85;;;4.07;;
38937;SDS011;24727;51.974;20.868;2022-12-29T09:36:52;9.88;;;4.28;;
38937;SDS011;24727;51.974;20.868;2022-12-29T09:39:17;7.82;;;4.47;;
38937;SDS011;24727;51.974;20.868;2022-12-29T09:41:52;8.68;;;4.68;;
38937;SDS011;24727;51.974;20.868;2022-12-29T09:47:40;8.27;;;4.60;;
38937;SDS011;24727;51.974;20.868;2022-12-29T09:50:28;9.75;;;4.78;;
38937;SDS011;24727;51.974;20.868;2022-12-29T09:55:35;8.48;;;4.40;;
38937;SDS011;24727;51.974;20.868;2022-12-29T10:03:26;9.07;;;5.25;;
38937;SDS011;24727;51.974;20.868;2022-12-29T10:06:15;10.63;;;5.28;;
38937;SDS011;24727;51.974;20.868;2022-12-29T10:09:25;11.10;;;5.60;;
38937;SDS011;24727;51.974;20.868;2022-12-29T10:12:02;10.27;;;5.28;;
38937;SDS011;24727;51.974;20.868;2022-12-29T10:17:29;10.25;;;5.40;;
38937;SDS011;24727;51.974;20.868;2022-12-29T10:20:19;9.65;;;4.93;;
38937;SDS011;24727;51.974;20.868;2022-12-29T10:25:37;9.18;;;4.88;;
38937;SDS011;24727;51.974;20.868;2022-12-29T10:28:17;10.15;;;5.15;;
38937;SDS011;24727;51.974;20.868;2022-12-29T10:30:49;9.27;;;4.82;;
38937;SDS011;24727;51.974;20.868;2022-12-29T10:33:26;9.90;;;4.85;;
38937;SDS011;24727;51.974;20.868;2022-12-29T10:36:00;9.88;;;4.68;;
38937;SDS011;24727;51.974;20.868;2022-12-29T10:38:51;7.97;;;4.75;;
38937;SDS011;24727;51.974;20.868;2022-12-29T10:41:36;9.07;;;4.53;;
38937;SDS011;24727;51.974;20.868;2022-12-29T10:44:06;7.63;;;4.72;;
38937;SDS011;24727;51.974;20.868;2022-12-29T10:46:38;8.50;;;4.95;;
38937;SDS011;24727;51.974;20.868;2022-12-29T10:49:14;8.15;;;4.60;;
38937;SDS011;24727;51.974;20.868;2022-12-29T10:51:43;8.68;;;4.75;;
38937;SDS011;24727;51.974;20.868;2022-12-29T10:57:02;8.98;;;5.03;;
38937;SDS011;24727;51.974;20.868;2022-12-29T10:59:33;9.00;;;5.00;;
38937;SDS011;24727;51.974;20.868;2022-12-29T11:07:14;8.57;;;4.60;;
38937;SDS011;24727;51.974;20.868;2022-12-29T11:09:43;11.48;;;4.53;;
38937;SDS011;24727;51.974;20.868;2022-12-29T11:12:21;7.32;;;3.70;;
38937;SDS011;24727;51.974;20.868;2022-12-29T11:17:46;8.68;;;4.90;;
38937;SDS011;24727;51.974;20.868;2022-12-29T11:20:26;7.13;;;4.30;;
38937;SDS011;24727;51.974;20.868;2022-12-29T11:22:57;7.28;;;4.65;;
38937;SDS011;24727;51.974;20.868;2022-12-29T11:25:23;6.93;;;4.40;;
38937;SDS011;24727;51.974;20.868;2022-12-29T11:27:59;7.00;;;4.05;;
38937;SDS011;24727;51.974;20.868;2022-12-29T11:30:30;7.32;;;4.07;;
38937;SDS011;24727;51.974;20.868;2022-12-29T11:32:57;8.05;;;4.28;;
38937;SDS011;24727;51.974;20.868;2022-12-29T11:35:41;7.97;;;4.10;;
38937;SDS011;24727;51.974;20.868;2022-12-29T11:38:18;12.30;;;4.32;;
38937;SDS011;24727;51.974;20.868;2022-12-29T11:40:49;7.43;;;4.20;;
38937;SDS011;24727;51.974;20.868;2022-12-29T11:43:23;7.70;;;4.25;;
38937;SDS011;24727;51.974;20.868;2022-12-29T11:45:53;12.30;;;4.70;;
38937;SDS011;24727;51.974;20.868;2022-12-29T11:48:21;9.93;;;4.53;;
38937;SDS011;24727;51.974;20.868;2022-12-29T11:50:55;8.57;;;4.38;;
38937;SDS011;24727;51.974;20.868;2022-12-29T11:53:28;8.15;;;4.35;;
38937;SDS011;24727;51.974;20.868;2022-12-29T11:56:02;7.30;;;3.88;;
38937;SDS011;24727;51.974;20.868;2022-12-29T12:01:18;7.78;;;3.60;;
38937;SDS011;24727;51.974;20.868;2022-12-29T12:06:29;8.77;;;3.67;;
38937;SDS011;24727;51.974;20.868;2022-12-29T12:11:35;6.18;;;3.58;;
38937;SDS011;24727;51.974;20.868;2022-12-29T12:14:29;5.85;;;3.10;;
38937;SDS011;24727;51.974;20.868;2022-12-29T12:17:02;5.55;;;3.30;;
38937;SDS011;24727;51.974;20.868;2022-12-29T12:19:45;8.05;;;3.63;;
38937;SDS011;24727;51.974;20.868;2022-12-29T12:27:36;6.55;;;3.25;;
38937;SDS011;24727;51.974;20.868;2022-12-29T12:30:27;7.63;;;3.80;;
38937;SDS011;24727;51.974;20.868;2022-12-29T12:33:06;9.93;;;4.05;;
38937;SDS011;24727;51.974;20.868;2022-12-29T12:35:46;6.67;;;3.90;;
38937;SDS011;24727;51.974;20.868;2022-12-29T12:44:12;7.30;;;4.00;;
38937;SDS011;24727;51.974;20.868;2022-12-29T12:55:41;8.00;;;4.00;;
38937;SDS011;24727;51.974;20.868;2022-12-29T13:06:25;9.00;;;4.30;;
38937;SDS011;24727;51.974;20.868;2022-12-29T13:17:44;7.88;;;4.47;;
38937;SDS011;24727;51.974;20.868;2022-12-29T13:22:58;9.18;;;3.80;;
38937;SDS011;24727;51.974;20.868;2022-12-29T13:25:55;8.40;;;3.33;;
38937;SDS011;24727;51.974;20.868;2022-12-29T13:36:24;6.85;;;3.78;;
38937;SDS011;24727;51.974;20.868;2022-12-29T13:39:27;8.10;;;4.68;;
38937;SDS011;24727;51.974;20.868;2022-12-29T13:47:15;7.55;;;4.25;;
38937;SDS011;24727;51.974;20.868;2022-12-29T13:49:52;9.30;;;4.13;;
38937;SDS011;24727;51.974;20.868;2022-12-29T13:52:32;7.35;;;4.60;;
38937;SDS011;24727;51.974;20.868;2022-12-29T14:08:48;11.07;;;4.78;;
38937;SDS011;24727;51.974;20.868;2022-12-29T14:11:17;11.40;;;5.13;;
38937;SDS011;24727;51.974;20.868;2022-12-29T14:13:46;10.43;;;4.82;;
38937;SDS011;24727;51.974;20.868;2022-12-29T14:19:04;9.18;;;4.78;;
38937;SDS011;24727;51.974;20.868;2022-12-29T14:21:56;9.85;;;4.75;;
38937;SDS011;24727;51.974;20.868;2022-12-29T14:24:27;8.20;;;5.10;;
38937;SDS011;24727;51.974;20.868;2022-12-29T14:26:53;9.60;;;5.03;;
38937;SDS011;24727;51.974;20.868;2022-12-29T14:34:51;11.35;;;5.05;;
38937;SDS011;24727;51.974;20.868;2022-12-29T14:37:30;8.27;;;4.70;;
38937;SDS011;24727;51.974;20.868;2022-12-29T14:42:50;10.48;;;5.30;;
38937;SDS011;24727;51.974;20.868;2022-12-29T14:47:47;8.45;;;4.93;;
38937;SDS011;24727;51.974;20.868;2022-12-29T14:50:16;10.57;;;4.72;;
38937;SDS011;24727;51.974;20.868;2022-12-29T14:53:04;10.68;;;4.82;;
38937;SDS011;24727;51.974;20.868;2022-12-29T14:55:41;8.25;;;4.75;;
38937;SDS011;24727;51.974;20.868;2022-12-29T15:01:03;9.75;;;5.40;;
38937;SDS011;24727;51.974;20.868;2022-12-29T15:04:23;8.43;;;4.50;;
38937;SDS011;24727;51.974;20.868;2022-12-29T15:06:50;8.88;;;4.43;;
38937;SDS011;24727;51.974;20.868;2022-12-29T15:09:25;8.20;;;4.50;;
38937;SDS011;24727;51.974;20.868;2022-12-29T15:12:47;8.20;;;4.80;;
38937;SDS011;24727;51.974;20.868;2022-12-29T15:14:56;9.73;;;4.38;;
38937;SDS011;24727;51.974;20.868;2022-12-29T15:19:49;10.73;;;4.93;;
38937;SDS011;24727;51.974;20.868;2022-12-29T15:22:17;8.20;;;4.38;;
38937;SDS011;24727;51.974;20.868;2022-12-29T15:24:43;7.30;;;4.28;;
38937;SDS011;24727;51.974;20.868;2022-12-29T15:27:12;8.25;;;4.18;;
38937;SDS011;24727;51.974;20.868;2022-12-29T15:29:41;6.80;;;4.47;;
38937;SDS011;24727;51.974;20.868;2022-12-29T15:32:27;10.50;;;4.63;;
38937;SDS011;24727;51.974;20.868;2022-12-29T15:34:56;8.77;;;4.55;;
38937;SDS011;24727;51.974;20.868;2022-12-29T15:37:34;9.35;;;4.90;;
38937;SDS011;24727;51.974;20.868;2022-12-29T15:40:03;8.52;;;4.55;;
38937;SDS011;24727;51.974;20.868;2022-12-29T15:45:32;9.70;;;4.72;;
38937;SDS011;24727;51.974;20.868;2022-12-29T15:48:02;8.68;;;4.68;;
38937;SDS011;24727;51.974;20.868;2022-12-29T15:50:31;7.65;;;4.55;;
38937;SDS011;24727;51.974;20.868;2022-12-29T15:53:01;7.03;;;4.30;;
38937;SDS011;24727;51.974;20.868;2022-12-29T15:55:33;8.18;;;5.00;;
38937;SDS011;24727;51.974;20.868;2022-12-29T15:58:17;8.38;;;4.45;;
38937;SDS011;24727;51.974;20.868;2022-12-29T16:00:59;7.32;;;4.50;;
38937;SDS011;24727;51.974;20.868;2022-12-29T16:03:29;8.80;;;4.05;;
38937;SDS011;24727;51.974;20.868;2022-12-29T16:06:07;6.63;;;4.20;;
38937;SDS011;24727;51.974;20.868;2022-12-29T16:08:35;9.00;;;4.80;;
38937;SDS011;24727;51.974;20.868;2022-12-29T16:11:21;6.57;;;3.92;;
38937;SDS011;24727;51.974;20.868;2022-12-29T16:13:52;9.27;;;4.50;;
38937;SDS011;24727;51.974;20.868;2022-12-29T16:16:20;7.57;;;4.63;;
38937;SDS011;24727;51.974;20.868;2022-12-29T16:18:50;7.88;;;4.10;;
38937;SDS011;24727;51.974;20.868;2022-12-29T16:21:22;9.25;;;4.80;;
38937;SDS011;24727;51.974;20.868;2022-12-29T16:23:54;7.32;;;4.47;;
38937;SDS011;24727;51.974;20.868;2022-12-29T16:26:24;7.38;;;4.22;;
38937;SDS011;24727;51.974;20.868;2022-12-29T16:28:50;9.13;;;4.65;;
38937;SDS011;24727;51.974;20.868;2022-12-29T16:31:23;9.13;;;4.22;;
38937;SDS011;24727;51.974;20.868;2022-12-29T16:33:57;9.20;;;4.47;;
38937;SDS011;24727;51.974;20.868;2022-12-29T16:36:28;9.63;;;4.05;;
38937;SDS011;24727;51.974;20.868;2022-12-29T16:41:50;9.52;;;4.35;;
38937;SDS011;24727;51.974;20.868;2022-12-29T16:44:18;8.43;;;4.70;;
38937;SDS011;24727;51.974;20.868;2022-12-29T16:51:55;8.63;;;3.92;;
38937;SDS011;24727;51.974;20.868;2022-12-29T16:54:44;7.00;;;4.30;;
38937;SDS011;24727;51.974;20.868;2022-12-29T16:57:13;9.38;;;4.95;;
38937;SDS011;24727;51.974;20.868;2022-12-29T16:59:40;10.55;;;5.35;;
38937;SDS011;24727;51.974;20.868;2022-12-29T17:02:20;7.88;;;4.97;;
38937;SDS011;24727;51.974;20.868;2022-12-29T17:04:49;8.68;;;4.72;;
38937;SDS011;24727;51.974;20.868;2022-12-29T17:07:16;8.88;;;5.00;;
38937;SDS011;24727;51.974;20.868;2022-12-29T17:09:44;8.73;;;4.60;;
38937;SDS011;24727;51.974;20.868;2022-12-29T17:12:15;9.55;;;5.07;;
38937;SDS011;24727;51.974;20.868;2022-12-29T17:14:53;9.88;;;5.60;;
38937;SDS011;24727;51.974;20.868;2022-12-29T17:20:16;10.43;;;5.72;;
38937;SDS011;24727;51.974;20.868;2022-12-29T17:22:44;10.55;;;5.95;;
38937;SDS011;24727;51.974;20.868;2022-12-29T17:25:15;10.65;;;6.18;;
38937;SDS011;24727;51.974;20.868;2022-12-29T17:27:46;11.45;;;5.72;;
38937;SDS011;24727;51.974;20.868;2022-12-29T17:30:24;11.50;;;5.40;;
38937;SDS011;24727;51.974;20.868;2022-12-29T17:32:53;9.93;;;5.88;;
38937;SDS011;24727;51.974;20.868;2022-12-29T17:35:34;11.73;;;5.95;;
38937;SDS011;24727;51.974;20.868;2022-12-29T17:38:01;12.02;;;5.75;;
38937;SDS011;24727;51.974;20.868;2022-12-29T17:40:28;12.18;;;6.05;;
38937;SDS011;24727;51.974;20.868;2022-12-29T17:42:57;9.55;;;5.88;;
38937;SDS011;24727;51.974;20.868;2022-12-29T17:45:28;13.15;;;6.57;;
38937;SDS011;24727;51.974;20.868;2022-12-29T17:47:56;14.10;;;6.63;;
38937;SDS011;24727;51.974;20.868;2022-12-29T17:50:26;10.45;;;6.07;;
38937;SDS011;24727;51.974;20.868;2022-12-29T17:52:58;13.18;;;6.65;;
38937;SDS011;24727;51.974;20.868;2022-12-29T17:55:27;9.77;;;5.50;;
38937;SDS011;24727;51.974;20.868;2022-12-29T17:57:54;10.30;;;6.30;;